• Join FlightAware (Why Join?)
  • Login
  • US Flag 
12:28AM EDT


 

Airport Tracker/Info


-or-


 

Live Flight TrackerFlight Track Log ✈ EJA966 ✈ 17-Jun-2013 ✈ KMVY - KHPN

Flight Track Log - Related Links

Times and Time Zones

All times are in EDT time to prevent confusion due to time zone crossing. See the EJA966 flight status page for this flight to view local times or setup timezone preferences in your user account.

Time Position Orientation Groundspeed Altitude Reporting Facility
EDT Latitude Longitude Course Direction KTS MPH feet Rate Location/Type
06:23AM 41.3167 -70.7514 304° West 217 250 5,400  Level Boston Center
06:24AM 41.3656 -70.8164 315° West 194 223 11,500 4,200 Climbing Boston Center
06:25AM 41.4681 -70.8500 346° North 286 329 13,800 2,100 Climbing Boston Center
06:26AM 41.5319 -70.9481 311° West 356 410 15,700 1,020 Climbing Boston Center
06:27AM 41.7551 -71.4974 309° West  Level FlightAware Approximate
06:27AM 41.5900 -71.0883 299° West 383 441 15,900  Level Boston Center
06:28AM 41.8345 -71.6356 304° West  Level FlightAware Approximate
06:28AM 41.6308 -71.2069 295° West 393 452 16,000  Level Boston Center
06:29AM 41.6636 -71.3592 286° West 387 445 16,000  Level Boston Center
06:30AM 41.6897 -71.4811 286° West 381 438 16,000  Level Boston Center
06:31AM 41.7181 -71.6169 286° West 376 433 16,000  Level Boston Center
06:32AM 41.7625 -71.7472 295° West 383 441 16,000  Level Boston Center
06:33AM 41.8133 -71.8858 296° West 383 441 16,000  Level Boston Center
06:34AM 41.8328 -71.9969 283° West 383 441 16,000  Level Boston Center
06:35AM 41.8581 -72.1614 282° West 383 441 16,000  Level Boston Center
06:36AM 41.8772 -72.2922 281° West 389 448 16,000  Level Boston Center
06:37AM 41.9022 -72.4456 282° West 389 448 16,000 -360 Level Boston Center
06:38AM 41.9231 -72.5711 283° West 389 448 15,300 -1,020 Descending Boston Center
06:39AM 41.9292 -72.7108 273° West 389 448 14,000 -660 Descending Boston Center
06:40AM 41.8808 -72.8361 243° Southwest 371 427 14,000 -600 Level Boston Center
06:41AM 41.8281 -72.9639 241° Southwest 380 437 12,900 -1,080 Descending Boston Center
06:42AM 41.7797 -73.0803 241° Southwest 372 428 11,900 -540 Descending Boston Center
06:43AM 41.7247 -73.2133 241° Southwest 372 428 11,900  Level Boston Center
06:44AM 41.6781 -73.3156 239° Southwest 372 428 11,900 -1,020 Level Boston Center
06:46AM 41.5833 -73.5500 242° Southwest 252 290 8,400 -1,560 Descending New York TRACON
06:47AM 41.5500 -73.6167 236° Southwest 252 290 6,700 -1,320 Descending New York TRACON
06:48AM 41.5167 -73.7000 242° Southwest 257 296 6,000 -360 Descending New York TRACON
06:49AM 41.4667 -73.7833 231° Southwest 258 297 6,000 -600 Level New York TRACON
06:50AM 41.4167 -73.8500 225° Southwest 267 307 4,900 -1,440 Descending New York TRACON
06:51AM 41.3500 -73.8000 151° Southeast 281 323 3,200 -1,020 Descending New York TRACON
06:52AM 41.3000 -73.7500 143° Southeast 270 311 3,000 -120 Descending New York TRACON
06:53AM 41.2333 -73.7000 151° Southeast 270 311 3,000 -120 Level New York TRACON
06:54AM 41.1667 -73.7167 191° South 224 258 2,800 -660 Descending New York TRACON
06:55AM 41.1167 -73.7333 194° South 181 208 1,800 -1,020 Descending New York TRACON
06:56AM 41.0833 -73.7167 159° South 134 154 900 -900 Descending New York TRACON
06:58AM 41.0669 -73.7076 255° West  Level Estimated
07:05AM 41.0667 -73.7000 255° West  Level FlightAware Approximate
07:06AM 41.0669 -73.7076 255° West  Level Estimated